PDT,Max TemperatureF,Mean TemperatureF,Min TemperatureF,Max Dew PointF,MeanDew PointF,Min DewpointF,Max Humidity, Mean Humidity, Min Humidity, Max Sea Level PressureIn, Mean Sea Level PressureIn, Min Sea Level PressureIn, Max VisibilityMiles, Mean VisibilityMiles, Min VisibilityMiles, Max Wind SpeedMPH, Mean Wind SpeedMPH, Max Gust SpeedMPH,PrecipitationIn, CloudCover, Events, WindDirDegrees
2013-9-1,78,64,51,57,54,48,100,73,42,29.93,29.89,29.85,10,8,0,20,3,22,0.00,2,,197
2013-9-2,78,66,53,57,54,52,94,71,42,29.99,29.93,29.91,10,10,10,16,3,23,0.00,3,,201
2013-9-3,73,64,55,61,57,52,94,80,53,30.07,30.02,29.98,10,10,5,8,2,,0.35,4,,38
2013-9-4,71,63,55,61,57,54,94,82,64,30.09,30.07,30.03,10,10,9,13,4,,0.11,4,,36
2013-9-5,68,62,57,61,58,55,94,88,73,30.08,30.04,29.98,10,9,5,9,3,,0.17,7,Thunderstorm,175
2013-9-6,66,62,59,61,58,55,94,86,77,30.15,30.06,29.98,10,9,4,13,5,,0.72,6,,187
2013-9-7,71,63,55,57,56,54,94,82,60,30.14,30.10,30.06,10,9,0,9,4,,0.00,5,,43
2013-9-8,78,64,51,59,55,48,100,75,44,30.15,30.11,30.06,10,9,0,8,2,,0.00,1,,53
2013-9-9,77,64,51,61,56,48,94,77,57,30.11,30.07,30.02,10,9,0,12,3,,0.00,1,,30
2013-9-10,77,65,53,61,55,52,94,72,50,30.03,29.98,29.93,10,10,10,14,7,17,0.00,0,,36
2013-9-11,89,73,57,61,56,52,88,56,31,29.98,29.95,29.92,10,10,9,15,8,16,0.00,0,,30
2013-9-12,82,68,55,63,58,54,100,81,51,30.05,29.99,29.95,10,6,0,8,3,,0.00,3,,202
2013-9-13,66,62,57,59,57,55,94,87,77,30.01,29.97,29.91,10,7,0,9,5,,0.00,8,,193
2013-9-14,71,63,53,59,57,52,94,83,64,29.92,29.86,29.78,10,9,5,8,2,,0.00,5,,34
2013-9-15,62,56,51,59,55,48,100,91,88,29.85,29.79,29.75,10,7,0,16,3,20,0.20,7,Thunderstorm,190
2013-9-16,69,62,55,57,55,52,94,87,60,29.97,29.92,29.84,10,10,6,17,11,21,0.07,8,,159
2013-9-17,60,56,51,54,52,48,94,86,68,29.97,29.93,29.91,10,9,0,6,1,,0.29,8,,344
2013-9-18,66,57,48,54,50,45,94,83,49,30.12,30.07,29.97,10,8,0,9,1,,0.10,5,,218
2013-9-19,77,60,42,52,47,39,94,70,31,30.08,29.94,29.81,10,10,2,8,1,,0.00,0,,249
2013-9-20,68,56,44,54,50,41,94,82,56,29.81,29.71,29.64,10,10,8,20,3,24,0.07,2,,191
2013-9-21,68,60,51,54,52,50,94,83,56,29.76,29.73,29.68,10,10,6,14,5,20,0.00,6,,200
2013-9-22,57,55,53,54,52,50,94,91,88,29.77,29.68,29.59,10,9,4,15,10,28,0.84,7,,174
2013-9-23,60,51,42,54,48,39,94,84,63,30.00,29.92,29.78,10,10,3,17,10,23,0.03,4,,167
2013-9-24,60,50,41,48,45,39,100,83,55,30.00,29.92,29.87,10,7,0,15,3,20,0.00,5,,177
2013-9-25,57,50,41,48,45,37,93,82,63,30.07,29.98,29.89,10,10,6,13,6,18,0.05,6,,33
2013-9-26,60,48,37,48,43,36,100,84,55,30.16,30.12,30.05,10,6,0,8,1,,0.00,5,,212
2013-9-27,53,50,46,52,48,43,94,90,87,30.15,30.01,29.87,10,9,5,20,9,26,0.07,7,,183
2013-9-28,57,52,48,55,51,46,94,91,87,29.87,29.57,29.38,10,9,4,24,10,34,2.06,8,,181
2013-9-29,53,50,48,50,47,43,94,87,76,29.57,29.47,29.19,10,10,5,21,13,30,1.57,7,,170
2013-9-30,55,50,46,50,45,41,93,86,72,29.95,29.72,29.46,10,10,7,21,14,31,0.49,5,,187